sensor_id;sensor_type;location;lat;lon;timestamp;temperature;humidity
25208;DHT22;13153;52.316;21.166;2023-03-14T00:00:04;10.40;99.90
25208;DHT22;13153;52.316;21.166;2023-03-14T00:02:36;10.40;99.90
25208;DHT22;13153;52.316;21.166;2023-03-14T00:05:03;10.40;99.90
25208;DHT22;13153;52.316;21.166;2023-03-14T00:07:36;10.30;99.90
25208;DHT22;13153;52.316;21.166;2023-03-14T00:10:09;10.30;99.90
25208;DHT22;13153;52.316;21.166;2023-03-14T00:12:38;10.30;99.90
25208;DHT22;13153;52.316;21.166;2023-03-14T00:15:05;10.30;99.90
25208;DHT22;13153;52.316;21.166;2023-03-14T00:17:33;10.20;99.90
25208;DHT22;13153;52.316;21.166;2023-03-14T00:20:00;10.20;99.90
25208;DHT22;13153;52.316;21.166;2023-03-14T00:22:34;10.10;99.90
25208;DHT22;13153;52.316;21.166;2023-03-14T00:25:01;10.10;99.90
25208;DHT22;13153;52.316;21.166;2023-03-14T00:27:27;10.10;99.90
25208;DHT22;13153;52.316;21.166;2023-03-14T00:29:54;10.10;99.90
25208;DHT22;13153;52.316;21.166;2023-03-14T00:32:19;10.00;99.90
25208;DHT22;13153;52.316;21.166;2023-03-14T00:34:45;10.00;99.90
25208;DHT22;13153;52.316;21.166;2023-03-14T00:37:13;10.00;99.90
25208;DHT22;13153;52.316;21.166;2023-03-14T00:39:39;10.00;99.90
25208;DHT22;13153;52.316;21.166;2023-03-14T00:42:05;9.90;99.90
25208;DHT22;13153;52.316;21.166;2023-03-14T00:44:31;9.90;99.90
25208;DHT22;13153;52.316;21.166;2023-03-14T00:46:57;9.80;99.90
25208;DHT22;13153;52.316;21.166;2023-03-14T00:49:23;9.80;99.90
25208;DHT22;13153;52.316;21.166;2023-03-14T00:51:49;9.80;99.90
25208;DHT22;13153;52.316;21.166;2023-03-14T00:54:17;9.80;99.90
25208;DHT22;13153;52.316;21.166;2023-03-14T00:56:44;9.80;99.90
25208;DHT22;13153;52.316;21.166;2023-03-14T00:59:09;9.70;99.90
25208;DHT22;13153;52.316;21.166;2023-03-14T01:01:36;9.70;99.90
25208;DHT22;13153;52.316;21.166;2023-03-14T01:04:02;9.70;99.90
25208;DHT22;13153;52.316;21.166;2023-03-14T01:06:29;9.60;99.90
25208;DHT22;13153;52.316;21.166;2023-03-14T01:08:56;9.60;99.90
25208;DHT22;13153;52.316;21.166;2023-03-14T01:11:25;9.60;99.90
25208;DHT22;13153;52.316;21.166;2023-03-14T01:13:54;9.50;99.90
25208;DHT22;13153;52.316;21.166;2023-03-14T01:16:22;9.50;99.90
25208;DHT22;13153;52.316;21.166;2023-03-14T01:18:50;9.50;99.90
25208;DHT22;13153;52.316;21.166;2023-03-14T01:21:29;9.50;99.90
25208;DHT22;13153;52.316;21.166;2023-03-14T01:24:00;9.40;99.90
25208;DHT22;13153;52.316;21.166;2023-03-14T01:26:30;9.40;99.90
25208;DHT22;13153;52.316;21.166;2023-03-14T01:28:57;9.40;99.90
25208;DHT22;13153;52.316;21.166;2023-03-14T01:31:24;9.40;99.90
25208;DHT22;13153;52.316;21.166;2023-03-14T01:33:51;9.40;99.90
25208;DHT22;13153;52.316;21.166;2023-03-14T01:36:17;9.30;99.90
25208;DHT22;13153;52.316;21.166;2023-03-14T01:38:43;9.30;99.90
25208;DHT22;13153;52.316;21.166;2023-03-14T01:41:14;9.30;99.90
25208;DHT22;13153;52.316;21.166;2023-03-14T01:43:44;9.30;99.90
25208;DHT22;13153;52.316;21.166;2023-03-14T01:46:29;9.30;99.90
25208;DHT22;13153;52.316;21.166;2023-03-14T01:49:07;9.30;99.90
25208;DHT22;13153;52.316;21.166;2023-03-14T01:51:56;9.30;99.90
25208;DHT22;13153;52.316;21.166;2023-03-14T01:54:34;9.30;99.90
25208;DHT22;13153;52.316;21.166;2023-03-14T01:59:47;9.30;99.90
25208;DHT22;13153;52.316;21.166;2023-03-14T02:02:24;9.30;99.90
25208;DHT22;13153;52.316;21.166;2023-03-14T02:04:54;9.30;99.90
25208;DHT22;13153;52.316;21.166;2023-03-14T02:07:35;9.30;99.90
25208;DHT22;13153;52.316;21.166;2023-03-14T02:10:27;9.30;99.90
25208;DHT22;13153;52.316;21.166;2023-03-14T02:12:56;9.30;99.90
25208;DHT22;13153;52.316;21.166;2023-03-14T02:15:25;9.30;99.90
25208;DHT22;13153;52.316;21.166;2023-03-14T02:17:51;9.30;99.90
25208;DHT22;13153;52.316;21.166;2023-03-14T02:23:24;9.20;99.90
25208;DHT22;13153;52.316;21.166;2023-03-14T02:26:10;9.20;99.90
25208;DHT22;13153;52.316;21.166;2023-03-14T02:29:03;9.20;99.90
25208;DHT22;13153;52.316;21.166;2023-03-14T02:31:29;9.10;99.90
25208;DHT22;13153;52.316;21.166;2023-03-14T02:33:55;9.20;99.90
25208;DHT22;13153;52.316;21.166;2023-03-14T02:36:23;9.20;99.90
25208;DHT22;13153;52.316;21.166;2023-03-14T02:39:11;9.20;99.90
25208;DHT22;13153;52.316;21.166;2023-03-14T02:41:43;9.10;99.90
25208;DHT22;13153;52.316;21.166;2023-03-14T02:44:11;9.20;99.90
25208;DHT22;13153;52.316;21.166;2023-03-14T02:46:37;9.10;99.90
25208;DHT22;13153;52.316;21.166;2023-03-14T02:49:12;9.10;99.90
25208;DHT22;13153;52.316;21.166;2023-03-14T02:51:40;9.10;99.90
25208;DHT22;13153;52.316;21.166;2023-03-14T02:54:08;9.10;99.90
25208;DHT22;13153;52.316;21.166;2023-03-14T02:56:34;9.10;99.90
25208;DHT22;13153;52.316;21.166;2023-03-14T02:59:03;9.00;99.90
25208;DHT22;13153;52.316;21.166;2023-03-14T03:01:29;9.00;99.90
25208;DHT22;13153;52.316;21.166;2023-03-14T03:03:55;8.90;99.90
25208;DHT22;13153;52.316;21.166;2023-03-14T03:06:21;8.90;99.90
25208;DHT22;13153;52.316;21.166;2023-03-14T03:08:47;8.90;99.90
25208;DHT22;13153;52.316;21.166;2023-03-14T03:11:13;8.80;99.90
25208;DHT22;13153;52.316;21.166;2023-03-14T03:13:40;8.80;99.90
25208;DHT22;13153;52.316;21.166;2023-03-14T03:16:06;8.80;99.90
25208;DHT22;13153;52.316;21.166;2023-03-14T03:18:32;8.70;99.90
25208;DHT22;13153;52.316;21.166;2023-03-14T03:21:04;8.70;99.90
25208;DHT22;13153;52.316;21.166;2023-03-14T03:23:31;8.60;99.90
25208;DHT22;13153;52.316;21.166;2023-03-14T03:25:57;8.60;99.90
25208;DHT22;13153;52.316;21.166;2023-03-14T03:28:23;8.60;99.90
25208;DHT22;13153;52.316;21.166;2023-03-14T03:30:49;8.60;99.90
25208;DHT22;13153;52.316;21.166;2023-03-14T03:33:14;8.50;99.90
25208;DHT22;13153;52.316;21.166;2023-03-14T03:35:45;8.50;99.90
25208;DHT22;13153;52.316;21.166;2023-03-14T03:38:12;8.50;99.90
25208;DHT22;13153;52.316;21.166;2023-03-14T03:40:38;8.50;99.90
25208;DHT22;13153;52.316;21.166;2023-03-14T03:43:04;8.40;99.90
25208;DHT22;13153;52.316;21.166;2023-03-14T03:45:30;8.40;99.90
25208;DHT22;13153;52.316;21.166;2023-03-14T03:47:56;8.40;99.90
25208;DHT22;13153;52.316;21.166;2023-03-14T03:50:22;8.30;99.90
25208;DHT22;13153;52.316;21.166;2023-03-14T03:52:48;8.30;99.90
25208;DHT22;13153;52.316;21.166;2023-03-14T03:55:14;8.30;99.90
25208;DHT22;13153;52.316;21.166;2023-03-14T03:57:40;8.30;99.90
25208;DHT22;13153;52.316;21.166;2023-03-14T04:00:06;8.30;99.90
25208;DHT22;13153;52.316;21.166;2023-03-14T04:02:36;8.20;99.90
25208;DHT22;13153;52.316;21.166;2023-03-14T04:05:02;8.20;99.90
25208;DHT22;13153;52.316;21.166;2023-03-14T04:07:28;8.20;99.90
25208;DHT22;13153;52.316;21.166;2023-03-14T04:09:53;8.20;99.90
25208;DHT22;13153;52.316;21.166;2023-03-14T04:12:19;8.10;99.90
25208;DHT22;13153;52.316;21.166;2023-03-14T04:14:45;8.20;99.90
25208;DHT22;13153;52.316;21.166;2023-03-14T04:17:11;8.20;99.90
25208;DHT22;13153;52.316;21.166;2023-03-14T04:19:37;8.10;99.90
25208;DHT22;13153;52.316;21.166;2023-03-14T04:22:03;8.20;99.90
25208;DHT22;13153;52.316;21.166;2023-03-14T04:24:29;8.10;99.90
25208;DHT22;13153;52.316;21.166;2023-03-14T04:26:54;8.10;99.90
25208;DHT22;13153;52.316;21.166;2023-03-14T04:29:20;8.10;99.90
25208;DHT22;13153;52.316;21.166;2023-03-14T04:31:46;8.10;99.90
25208;DHT22;13153;52.316;21.166;2023-03-14T04:34:12;8.10;99.90
25208;DHT22;13153;52.316;21.166;2023-03-14T04:36:38;8.00;99.90
25208;DHT22;13153;52.316;21.166;2023-03-14T04:39:03;8.10;99.90
25208;DHT22;13153;52.316;21.166;2023-03-14T04:41:29;8.00;99.90
25208;DHT22;13153;52.316;21.166;2023-03-14T04:43:56;8.00;99.90
25208;DHT22;13153;52.316;21.166;2023-03-14T04:46:21;8.00;99.90
25208;DHT22;13153;52.316;21.166;2023-03-14T04:48:47;8.00;99.90
25208;DHT22;13153;52.316;21.166;2023-03-14T04:51:13;8.00;99.90
25208;DHT22;13153;52.316;21.166;2023-03-14T04:53:39;7.90;99.90
25208;DHT22;13153;52.316;21.166;2023-03-14T04:56:05;8.00;99.90
25208;DHT22;13153;52.316;21.166;2023-03-14T04:58:31;8.00;99.90
25208;DHT22;13153;52.316;21.166;2023-03-14T05:01:05;7.90;99.90
25208;DHT22;13153;52.316;21.166;2023-03-14T05:03:31;8.00;99.90
25208;DHT22;13153;52.316;21.166;2023-03-14T05:05:57;8.00;99.90
25208;DHT22;13153;52.316;21.166;2023-03-14T05:08:24;8.00;99.90
25208;DHT22;13153;52.316;21.166;2023-03-14T05:10:57;8.00;99.90
25208;DHT22;13153;52.316;21.166;2023-03-14T05:13:23;8.00;99.90
25208;DHT22;13153;52.316;21.166;2023-03-14T05:15:49;8.00;99.90
25208;DHT22;13153;52.316;21.166;2023-03-14T05:18:16;8.10;99.90
25208;DHT22;13153;52.316;21.166;2023-03-14T05:20:42;8.10;99.90
25208;DHT22;13153;52.316;21.166;2023-03-14T05:23:10;8.20;99.90
25208;DHT22;13153;52.316;21.166;2023-03-14T05:25:36;8.20;99.90
25208;DHT22;13153;52.316;21.166;2023-03-14T05:28:02;8.30;99.90
25208;DHT22;13153;52.316;21.166;2023-03-14T05:30:29;8.40;99.90
25208;DHT22;13153;52.316;21.166;2023-03-14T05:32:56;8.50;99.90
25208;DHT22;13153;52.316;21.166;2023-03-14T05:35:22;8.70;99.90
25208;DHT22;13153;52.316;21.166;2023-03-14T05:37:47;8.80;99.90
25208;DHT22;13153;52.316;21.166;2023-03-14T05:40:13;8.80;99.90
25208;DHT22;13153;52.316;21.166;2023-03-14T05:42:39;8.80;99.90
25208;DHT22;13153;52.316;21.166;2023-03-14T05:45:06;8.90;99.90
25208;DHT22;13153;52.316;21.166;2023-03-14T05:47:32;8.90;99.90
25208;DHT22;13153;52.316;21.166;2023-03-14T05:49:58;9.00;99.90
25208;DHT22;13153;52.316;21.166;2023-03-14T05:52:23;9.10;99.90
25208;DHT22;13153;52.316;21.166;2023-03-14T05:54:49;9.20;99.90
25208;DHT22;13153;52.316;21.166;2023-03-14T05:57:15;9.50;99.90
25208;DHT22;13153;52.316;21.166;2023-03-14T05:59:41;9.60;99.90
25208;DHT22;13153;52.316;21.166;2023-03-14T06:02:07;9.70;99.90
25208;DHT22;13153;52.316;21.166;2023-03-14T06:04:32;10.00;99.90
25208;DHT22;13153;52.316;21.166;2023-03-14T06:06:58;10.40;99.90
25208;DHT22;13153;52.316;21.166;2023-03-14T06:09:24;10.70;99.90
25208;DHT22;13153;52.316;21.166;2023-03-14T06:11:50;11.10;99.90
25208;DHT22;13153;52.316;21.166;2023-03-14T06:14:16;11.50;99.90
25208;DHT22;13153;52.316;21.166;2023-03-14T06:16:43;11.90;99.90
25208;DHT22;13153;52.316;21.166;2023-03-14T06:19:08;12.20;99.90
25208;DHT22;13153;52.316;21.166;2023-03-14T06:21:34;12.60;99.90
25208;DHT22;13153;52.316;21.166;2023-03-14T06:24:00;12.80;99.90
25208;DHT22;13153;52.316;21.166;2023-03-14T06:26:26;12.60;99.90
25208;DHT22;13153;52.316;21.166;2023-03-14T06:28:52;12.10;99.90
25208;DHT22;13153;52.316;21.166;2023-03-14T06:31:19;11.60;99.90
25208;DHT22;13153;52.316;21.166;2023-03-14T06:33:44;11.20;99.90
25208;DHT22;13153;52.316;21.166;2023-03-14T06:36:10;10.90;99.90
25208;DHT22;13153;52.316;21.166;2023-03-14T06:38:36;10.70;99.90
25208;DHT22;13153;52.316;21.166;2023-03-14T06:41:06;10.60;99.90
25208;DHT22;13153;52.316;21.166;2023-03-14T06:43:32;10.60;99.90
25208;DHT22;13153;52.316;21.166;2023-03-14T06:45:59;10.60;99.90
25208;DHT22;13153;52.316;21.166;2023-03-14T06:48:24;10.50;99.90
25208;DHT22;13153;52.316;21.166;2023-03-14T06:50:50;10.60;99.90
25208;DHT22;13153;52.316;21.166;2023-03-14T06:53:16;10.70;99.90
25208;DHT22;13153;52.316;21.166;2023-03-14T06:55:42;10.80;99.90
25208;DHT22;13153;52.316;21.166;2023-03-14T06:58:08;11.20;99.90
25208;DHT22;13153;52.316;21.166;2023-03-14T07:00:35;11.70;99.90
25208;DHT22;13153;52.316;21.166;2023-03-14T07:03:01;12.30;99.90
25208;DHT22;13153;52.316;21.166;2023-03-14T07:05:27;12.70;99.90
25208;DHT22;13153;52.316;21.166;2023-03-14T07:07:53;13.00;99.90
25208;DHT22;13153;52.316;21.166;2023-03-14T07:10:19;12.90;99.90
25208;DHT22;13153;52.316;21.166;2023-03-14T07:12:44;12.80;99.90
25208;DHT22;13153;52.316;21.166;2023-03-14T07:15:10;12.80;99.90
25208;DHT22;13153;52.316;21.166;2023-03-14T07:17:36;12.70;99.90
25208;DHT22;13153;52.316;21.166;2023-03-14T07:20:03;12.60;99.90
25208;DHT22;13153;52.316;21.166;2023-03-14T07:22:32;12.60;99.90
25208;DHT22;13153;52.316;21.166;2023-03-14T07:24:58;12.50;99.90
25208;DHT22;13153;52.316;21.166;2023-03-14T07:27:24;12.40;99.90
25208;DHT22;13153;52.316;21.166;2023-03-14T07:29:49;12.30;99.90
25208;DHT22;13153;52.316;21.166;2023-03-14T07:32:15;12.30;99.90
25208;DHT22;13153;52.316;21.166;2023-03-14T07:34:41;12.30;99.90
25208;DHT22;13153;52.316;21.166;2023-03-14T07:37:07;12.40;99.90
25208;DHT22;13153;52.316;21.166;2023-03-14T07:39:33;12.80;99.90
25208;DHT22;13153;52.316;21.166;2023-03-14T07:42:00;13.10;99.90
25208;DHT22;13153;52.316;21.166;2023-03-14T07:44:26;13.50;99.90
25208;DHT22;13153;52.316;21.166;2023-03-14T07:46:52;13.80;99.90
25208;DHT22;13153;52.316;21.166;2023-03-14T07:49:18;14.20;99.90
25208;DHT22;13153;52.316;21.166;2023-03-14T07:51:47;14.40;99.90
25208;DHT22;13153;52.316;21.166;2023-03-14T07:54:13;14.60;99.90
25208;DHT22;13153;52.316;21.166;2023-03-14T07:56:39;14.70;99.90
25208;DHT22;13153;52.316;21.166;2023-03-14T07:59:05;14.90;99.90
25208;DHT22;13153;52.316;21.166;2023-03-14T08:01:31;14.90;99.90
25208;DHT22;13153;52.316;21.166;2023-03-14T08:03:57;15.00;99.90
25208;DHT22;13153;52.316;21.166;2023-03-14T08:06:23;15.00;99.90
25208;DHT22;13153;52.316;21.166;2023-03-14T08:08:48;14.90;99.90
25208;DHT22;13153;52.316;21.166;2023-03-14T08:11:14;15.10;99.90
25208;DHT22;13153;52.316;21.166;2023-03-14T08:13:40;15.20;99.90
25208;DHT22;13153;52.316;21.166;2023-03-14T08:16:06;15.40;99.90
25208;DHT22;13153;52.316;21.166;2023-03-14T08:18:32;15.50;99.90
25208;DHT22;13153;52.316;21.166;2023-03-14T08:20:58;15.70;99.90
25208;DHT22;13153;52.316;21.166;2023-03-14T08:23:24;15.70;99.20
25208;DHT22;13153;52.316;21.166;2023-03-14T08:25:51;15.80;98.80
25208;DHT22;13153;52.316;21.166;2023-03-14T08:28:17;15.80;98.70
25208;DHT22;13153;52.316;21.166;2023-03-14T08:30:44;15.60;97.80
25208;DHT22;13153;52.316;21.166;2023-03-14T08:33:10;15.50;98.70
25208;DHT22;13153;52.316;21.166;2023-03-14T08:35:37;15.40;99.00
25208;DHT22;13153;52.316;21.166;2023-03-14T08:38:04;15.40;98.70
25208;DHT22;13153;52.316;21.166;2023-03-14T08:40:30;15.30;98.50
25208;DHT22;13153;52.316;21.166;2023-03-14T08:42:55;15.30;99.00
25208;DHT22;13153;52.316;21.166;2023-03-14T08:45:21;15.20;98.20
25208;DHT22;13153;52.316;21.166;2023-03-14T08:47:48;15.30;99.40
25208;DHT22;13153;52.316;21.166;2023-03-14T08:50:14;15.40;98.40
25208;DHT22;13153;52.316;21.166;2023-03-14T08:52:40;15.50;97.60
25208;DHT22;13153;52.316;21.166;2023-03-14T08:55:08;15.40;97.90
25208;DHT22;13153;52.316;21.166;2023-03-14T08:57:34;15.30;97.10
25208;DHT22;13153;52.316;21.166;2023-03-14T09:00:00;15.20;97.60
25208;DHT22;13153;52.316;21.166;2023-03-14T09:02:26;15.20;97.80
25208;DHT22;13153;52.316;21.166;2023-03-14T09:04:52;15.20;97.50
25208;DHT22;13153;52.316;21.166;2023-03-14T09:07:19;15.40;98.20
25208;DHT22;13153;52.316;21.166;2023-03-14T09:09:45;15.50;97.90
25208;DHT22;13153;52.316;21.166;2023-03-14T09:12:11;15.70;96.70
25208;DHT22;13153;52.316;21.166;2023-03-14T09:14:37;15.90;97.40
25208;DHT22;13153;52.316;21.166;2023-03-14T09:17:03;15.90;95.80
25208;DHT22;13153;52.316;21.166;2023-03-14T09:19:30;16.00;96.00
25208;DHT22;13153;52.316;21.166;2023-03-14T09:21:55;16.00;96.30
25208;DHT22;13153;52.316;21.166;2023-03-14T09:24:21;16.00;96.20
25208;DHT22;13153;52.316;21.166;2023-03-14T09:26:47;16.00;96.40
25208;DHT22;13153;52.316;21.166;2023-03-14T09:29:13;16.00;96.10
25208;DHT22;13153;52.316;21.166;2023-03-14T09:31:38;15.90;96.10
25208;DHT22;13153;52.316;21.166;2023-03-14T09:34:04;15.90;95.90
25208;DHT22;13153;52.316;21.166;2023-03-14T09:36:30;15.90;95.90
25208;DHT22;13153;52.316;21.166;2023-03-14T09:38:56;16.00;95.70
25208;DHT22;13153;52.316;21.166;2023-03-14T09:41:27;16.10;95.60
25208;DHT22;13153;52.316;21.166;2023-03-14T09:44:04;16.20;95.70
25208;DHT22;13153;52.316;21.166;2023-03-14T09:46:38;16.20;95.30
25208;DHT22;13153;52.316;21.166;2023-03-14T09:51:59;16.10;95.40
25208;DHT22;13153;52.316;21.166;2023-03-14T09:54:37;16.10;95.50
25208;DHT22;13153;52.316;21.166;2023-03-14T09:57:28;16.10;95.80
25208;DHT22;13153;52.316;21.166;2023-03-14T10:00:18;16.10;96.00
25208;DHT22;13153;52.316;21.166;2023-03-14T10:03:20;16.10;95.50
25208;DHT22;13153;52.316;21.166;2023-03-14T10:05:57;16.20;95.80
25208;DHT22;13153;52.316;21.166;2023-03-14T10:08:23;16.20;95.80
25208;DHT22;13153;52.316;21.166;2023-03-14T10:10:49;16.30;96.00
25208;DHT22;13153;52.316;21.166;2023-03-14T10:13:17;16.30;95.90
25208;DHT22;13153;52.316;21.166;2023-03-14T10:15:59;16.50;96.10
25208;DHT22;13153;52.316;21.166;2023-03-14T10:18:29;16.70;95.50
25208;DHT22;13153;52.316;21.166;2023-03-14T10:21:22;16.90;95.20
25208;DHT22;13153;52.316;21.166;2023-03-14T10:23:53;17.10;94.10
25208;DHT22;13153;52.316;21.166;2023-03-14T10:26:26;17.10;93.50
25208;DHT22;13153;52.316;21.166;2023-03-14T10:29:01;17.00;93.00
25208;DHT22;13153;52.316;21.166;2023-03-14T10:31:57;16.90;92.90
25208;DHT22;13153;52.316;21.166;2023-03-14T10:34:33;16.70;93.10
25208;DHT22;13153;52.316;21.166;2023-03-14T10:37:24;16.50;93.60
25208;DHT22;13153;52.316;21.166;2023-03-14T10:39:54;16.40;94.10
25208;DHT22;13153;52.316;21.166;2023-03-14T10:42:28;16.30;94.50
25208;DHT22;13153;52.316;21.166;2023-03-14T10:45:02;16.30;94.40
25208;DHT22;13153;52.316;21.166;2023-03-14T10:47:33;16.30;94.90
25208;DHT22;13153;52.316;21.166;2023-03-14T10:50:27;16.40;94.90
25208;DHT22;13153;52.316;21.166;2023-03-14T10:52:56;16.30;94.50
25208;DHT22;13153;52.316;21.166;2023-03-14T10:55:24;16.40;94.60
25208;DHT22;13153;52.316;21.166;2023-03-14T10:57:53;16.40;94.90
25208;DHT22;13153;52.316;21.166;2023-03-14T11:00:22;16.40;94.50
25208;DHT22;13153;52.316;21.166;2023-03-14T11:05:40;16.50;95.00
25208;DHT22;13153;52.316;21.166;2023-03-14T11:08:49;16.50;94.50
25208;DHT22;13153;52.316;21.166;2023-03-14T11:11:25;16.40;94.30
25208;DHT22;13153;52.316;21.166;2023-03-14T11:17:02;16.30;94.60
25208;DHT22;13153;52.316;21.166;2023-03-14T11:28:57;16.10;95.20
25208;DHT22;13153;52.316;21.166;2023-03-14T11:31:32;16.10;95.20
25208;DHT22;13153;52.316;21.166;2023-03-14T11:34:27;16.10;95.60
25208;DHT22;13153;52.316;21.166;2023-03-14T11:37:07;16.00;95.40
25208;DHT22;13153;52.316;21.166;2023-03-14T11:40:11;16.00;95.80
25208;DHT22;13153;52.316;21.166;2023-03-14T11:42:43;16.00;96.00
25208;DHT22;13153;52.316;21.166;2023-03-14T11:45:20;15.90;96.30
25208;DHT22;13153;52.316;21.166;2023-03-14T11:48:42;15.90;96.70
25208;DHT22;13153;52.316;21.166;2023-03-14T11:51:04;15.90;96.10
25208;DHT22;13153;52.316;21.166;2023-03-14T11:53:50;15.90;96.30
25208;DHT22;13153;52.316;21.166;2023-03-14T11:56:38;16.00;96.30
25208;DHT22;13153;52.316;21.166;2023-03-14T12:02:04;15.90;95.50
25208;DHT22;13153;52.316;21.166;2023-03-14T12:10:43;15.50;96.30
25208;DHT22;13153;52.316;21.166;2023-03-14T12:13:14;15.40;96.80
25208;DHT22;13153;52.316;21.166;2023-03-14T12:15:57;15.30;97.10
25208;DHT22;13153;52.316;21.166;2023-03-14T12:18:29;15.30;97.00
25208;DHT22;13153;52.316;21.166;2023-03-14T12:21:03;15.20;97.30
25208;DHT22;13153;52.316;21.166;2023-03-14T12:23:42;15.30;98.60
25208;DHT22;13153;52.316;21.166;2023-03-14T12:26:20;15.40;98.20
25208;DHT22;13153;52.316;21.166;2023-03-14T12:28:51;15.70;97.90
25208;DHT22;13153;52.316;21.166;2023-03-14T12:32:08;15.80;97.70
25208;DHT22;13153;52.316;21.166;2023-03-14T12:34:47;15.90;96.80
25208;DHT22;13153;52.316;21.166;2023-03-14T12:37:22;15.90;96.80
25208;DHT22;13153;52.316;21.166;2023-03-14T12:40:06;15.90;96.70
25208;DHT22;13153;52.316;21.166;2023-03-14T12:45:34;15.80;97.20
25208;DHT22;13153;52.316;21.166;2023-03-14T12:51:04;15.60;97.70
25208;DHT22;13153;52.316;21.166;2023-03-14T12:56:49;15.50;98.70
25208;DHT22;13153;52.316;21.166;2023-03-14T12:59:38;15.50;99.30
25208;DHT22;13153;52.316;21.166;2023-03-14T13:02:24;15.50;99.60
25208;DHT22;13153;52.316;21.166;2023-03-14T13:12:48;15.20;99.90
25208;DHT22;13153;52.316;21.166;2023-03-14T13:15:36;15.20;99.90
25208;DHT22;13153;52.316;21.166;2023-03-14T13:18:16;15.10;99.90
25208;DHT22;13153;52.316;21.166;2023-03-14T13:20:52;14.90;99.90
25208;DHT22;13153;52.316;21.166;2023-03-14T13:23:31;14.80;99.90
25208;DHT22;13153;52.316;21.166;2023-03-14T13:25:59;14.70;99.90
25208;DHT22;13153;52.316;21.166;2023-03-14T13:28:27;14.60;99.90
25208;DHT22;13153;52.316;21.166;2023-03-14T13:31:00;14.50;99.90
25208;DHT22;13153;52.316;21.166;2023-03-14T13:33:28;14.30;99.90
25208;DHT22;13153;52.316;21.166;2023-03-14T13:36:02;14.30;99.90
25208;DHT22;13153;52.316;21.166;2023-03-14T13:38:32;14.20;99.90
25208;DHT22;13153;52.316;21.166;2023-03-14T13:41:05;14.10;99.90
25208;DHT22;13153;52.316;21.166;2023-03-14T13:43:43;14.00;99.90
25208;DHT22;13153;52.316;21.166;2023-03-14T13:46:21;13.90;99.90
25208;DHT22;13153;52.316;21.166;2023-03-14T13:48:50;13.80;99.90
25208;DHT22;13153;52.316;21.166;2023-03-14T13:51:20;13.80;99.90
25208;DHT22;13153;52.316;21.166;2023-03-14T13:53:54;13.70;99.90
25208;DHT22;13153;52.316;21.166;2023-03-14T13:56:23;13.60;99.90
25208;DHT22;13153;52.316;21.166;2023-03-14T13:58:51;13.60;99.90
25208;DHT22;13153;52.316;21.166;2023-03-14T14:03:54;13.50;99.90
25208;DHT22;13153;52.316;21.166;2023-03-14T14:06:36;13.50;99.90
25208;DHT22;13153;52.316;21.166;2023-03-14T14:09:15;13.50;99.90
25208;DHT22;13153;52.316;21.166;2023-03-14T14:14:29;13.50;99.90
25208;DHT22;13153;52.316;21.166;2023-03-14T14:17:01;13.50;99.90
25208;DHT22;13153;52.316;21.166;2023-03-14T14:19:34;13.50;99.90
25208;DHT22;13153;52.316;21.166;2023-03-14T14:22:02;13.40;99.90
25208;DHT22;13153;52.316;21.166;2023-03-14T14:24:31;13.50;99.90
25208;DHT22;13153;52.316;21.166;2023-03-14T14:27:07;13.40;99.90
25208;DHT22;13153;52.316;21.166;2023-03-14T14:29:37;13.50;99.90
25208;DHT22;13153;52.316;21.166;2023-03-14T14:34:46;13.30;99.90
25208;DHT22;13153;52.316;21.166;2023-03-14T14:37:26;13.30;99.90
25208;DHT22;13153;52.316;21.166;2023-03-14T14:39:59;13.30;99.90
25208;DHT22;13153;52.316;21.166;2023-03-14T14:42:31;13.10;99.90
25208;DHT22;13153;52.316;21.166;2023-03-14T14:44:58;13.10;99.90
25208;DHT22;13153;52.316;21.166;2023-03-14T14:47:28;13.00;99.90
25208;DHT22;13153;52.316;21.166;2023-03-14T14:49:58;13.00;99.90
25208;DHT22;13153;52.316;21.166;2023-03-14T14:52:40;12.90;99.90
25208;DHT22;13153;52.316;21.166;2023-03-14T14:55:17;12.90;99.90
25208;DHT22;13153;52.316;21.166;2023-03-14T14:57:53;12.80;99.90
25208;DHT22;13153;52.316;21.166;2023-03-14T15:00:24;12.80;99.90
25208;DHT22;13153;52.316;21.166;2023-03-14T15:02:55;12.70;99.90
25208;DHT22;13153;52.316;21.166;2023-03-14T15:05:27;12.70;99.90
25208;DHT22;13153;52.316;21.166;2023-03-14T15:07:55;12.60;99.90
25208;DHT22;13153;52.316;21.166;2023-03-14T15:10:24;12.60;99.90
25208;DHT22;13153;52.316;21.166;2023-03-14T15:12:51;12.60;99.90
25208;DHT22;13153;52.316;21.166;2023-03-14T15:15:17;12.60;99.90
25208;DHT22;13153;52.316;21.166;2023-03-14T15:17:43;12.60;99.90
25208;DHT22;13153;52.316;21.166;2023-03-14T15:20:14;12.60;99.90
25208;DHT22;13153;52.316;21.166;2023-03-14T15:22:42;12.70;99.90
25208;DHT22;13153;52.316;21.166;2023-03-14T15:25:09;12.70;99.90
25208;DHT22;13153;52.316;21.166;2023-03-14T15:27:35;12.70;99.90
25208;DHT22;13153;52.316;21.166;2023-03-14T15:30:02;12.70;99.90
25208;DHT22;13153;52.316;21.166;2023-03-14T15:32:28;12.70;99.90
25208;DHT22;13153;52.316;21.166;2023-03-14T15:34:57;12.70;99.90
25208;DHT22;13153;52.316;21.166;2023-03-14T15:37:23;12.60;99.90
25208;DHT22;13153;52.316;21.166;2023-03-14T15:39:51;12.60;99.90
25208;DHT22;13153;52.316;21.166;2023-03-14T15:42:17;12.50;99.90
25208;DHT22;13153;52.316;21.166;2023-03-14T15:44:42;12.40;99.90
25208;DHT22;13153;52.316;21.166;2023-03-14T15:47:10;12.40;99.90
25208;DHT22;13153;52.316;21.166;2023-03-14T15:49:36;12.30;99.90
25208;DHT22;13153;52.316;21.166;2023-03-14T15:52:02;12.30;99.90
25208;DHT22;13153;52.316;21.166;2023-03-14T15:54:28;12.30;99.90
25208;DHT22;13153;52.316;21.166;2023-03-14T15:56:55;12.30;99.90
25208;DHT22;13153;52.316;21.166;2023-03-14T15:59:23;12.30;99.90
25208;DHT22;13153;52.316;21.166;2023-03-14T16:01:49;12.20;99.90
25208;DHT22;13153;52.316;21.166;2023-03-14T16:04:16;12.30;99.90
25208;DHT22;13153;52.316;21.166;2023-03-14T16:06:43;12.20;99.90
25208;DHT22;13153;52.316;21.166;2023-03-14T16:09:11;12.20;99.90
25208;DHT22;13153;52.316;21.166;2023-03-14T16:11:37;12.20;99.90
25208;DHT22;13153;52.316;21.166;2023-03-14T16:14:03;12.20;99.90
25208;DHT22;13153;52.316;21.166;2023-03-14T16:16:29;12.10;99.90
25208;DHT22;13153;52.316;21.166;2023-03-14T16:18:55;12.10;99.90
25208;DHT22;13153;52.316;21.166;2023-03-14T16:21:21;12.10;99.90
25208;DHT22;13153;52.316;21.166;2023-03-14T16:23:47;12.00;99.90
25208;DHT22;13153;52.316;21.166;2023-03-14T16:26:18;12.00;99.90
25208;DHT22;13153;52.316;21.166;2023-03-14T16:28:46;12.00;99.90
25208;DHT22;13153;52.316;21.166;2023-03-14T16:31:15;12.00;99.90
25208;DHT22;13153;52.316;21.166;2023-03-14T16:33:43;11.90;99.90